Weather observations for the past three days for
Lambertville, Toledo Suburban Airport
Metric (Imperial)
Date Time (edt) Wind (kph) Vis. (km) Weather Sky Cond. Temperature (ºC) Relative Humidity Wind Chill (°C) Heat Index (°C) Pressure Precipitation (cm)
Air Dwpt 6 hour altimeter (cm) sea level (mb) 1 hr 3 hr 6 hr
Max. Min.
07 17:15 NW 15 G 33 16.09 A Few Clouds FEW070 14 -3 31% 75.87 0.0
07 16:55 W 17 G 31 16.09 Partly Cloudy FEW070 SCT080 14 -2 33% 75.9 0.0
07 16:35 NW 19 G 26 16.09 Mostly Cloudy SCT080 BKN090 14 -2 33% 75.92 0.0
07 16:15 NW 22 G 41 16.09 Mostly Cloudy BKN065 BKN080 14 -1 36% 75.92 0.0
07 15:55 W 20 G 30 16.09 Mostly Cloudy BKN065 BKN080 14 -2 33% 75.92 0.0
07 15:35 W 24 16.09 Mostly Cloudy BKN065 BKN080 13 -2 36% 75.95 0.0
07 15:15 W 20 G 30 16.09 Mostly Cloudy BKN065 BKN080 14 -2 33% 75.92 0.0
07 14:55 NW 15 G 41 16.09 Mostly Cloudy BKN070 14 -2 33% 75.95 0.0
07 14:35 NW 19 G 31 16.09 Partly Cloudy SCT070 13 -2 36% 75.95 0.0
07 14:15 NW 15 G 43 16.09 Mostly Cloudy BKN070 13 -2 36% 75.95 0.0
07 13:55 W 28 G 44 16.09 Partly Cloudy SCT070 13 -1 13.6 6.4 38% 75.95 0.0
07 13:35 NW 15 16.09 Partly Cloudy SCT055 13 -1 38% 75.97 0.0
07 13:15 W 20 G 39 16.09 A Few Clouds FEW055 13 -1 38% 75.97 0.0
07 12:56 W 17 G 33 16.09 Fair CLR 13 -2 36% 76 0.0
07 12:35 W 22 G 37 16.09 A Few Clouds FEW050 13 0 41% 76 0.0
07 12:15 W 28 16.09 A Few Clouds FEW050 12 0 44% 76 0.0
07 11:55 NW 17 G 26 16.09 A Few Clouds FEW050 12 0 44% 76 0.0
07 11:35 W 22 G 28 16.09 Partly Cloudy SCT050 12 0 44% 76 0.0
07 11:15 W 22 16.09 A Few Clouds FEW042 12 1 47% 76 0.0
07 10:56 W 9 16.09 Fair CLR 11 1 50% 76 0.0
07 10:36 W 15 16.09 Fair CLR 11 2 54% 76 0.0
07 10:15 W 11 16.09 Fair CLR 10 2 58% 9 76 0.0
07 09:55 W 11 16.09 Fair CLR 10 2 58% 9 76.02 0.0
07 09:35 W 9 16.09 Fair CLR 9 3 66% 8 76.02 0.0
07 09:15 W 9 16.09 Fair CLR 9 3 66% 8 76.02 0.0
07 08:55 Vrbl 9 16.09 Fair CLR 8 2 66% 7 76.02 0.0
07 08:35 W 13 16.09 Fair CLR 8 2 66% 6 76.02 0.0
07 08:15 W 7 16.09 Fair CLR 7 2 71% 6 76.02 0.0
07 07:55 Vrbl 6 16.09 Fair CLR 7 2 8.3 4.3 71% 76.02 0.0
07 07:35 W 7 16.09 Fair CLR 6 2 76% 5 76 0.0
07 07:15 W 9 16.09 Fair CLR 6 1 71% 4 75.97 0.0
07 06:55 Vrbl 6 16.09 Fair CLR 6 2 76% 75.97 0.0
07 06:35 W 7 16.09 Fair CLR 6 2 76% 5 75.97 0.0
07 06:15 W 6 16.09 Fair CLR 6 2 76% 75.95 0.0
07 05:55 W 4 16.09 Fair CLR 5 2 81% 75.95 0.0
07 05:35 W 4 16.09 Fair CLR 5 1 76% 75.95 0.0
07 05:15 Vrbl 4 16.09 Partly Cloudy SCT080 6 2 76% 75.92 0.0
07 04:55 NW 4 16.09 Overcast OVC070 7 2 71% 75.95 0.0
07 04:35 W 4 16.09 Overcast BKN070 OVC085 7 2 71% 75.95 0.0
07 04:15 W 6 16.09 Overcast BKN070 OVC080 7 2 71% 75.97 0.0
07 03:55 Calm 16.09 Overcast SCT070 OVC090 8 2 66% 75.95 0.0
07 03:35 W 4 16.09 Overcast BKN070 OVC090 8 2 66% 75.97 0.0
07 03:15 Vrbl 4 16.09 Overcast OVC070 8 2 66% 75.95 0.0
07 02:55 N 4 16.09 Overcast OVC070 7 3 76% 75.95 0.0
07 02:35 Vrbl 2 16.09 Overcast OVC070 7 4 81% 75.97 0.0
07 02:15 S 2 16.09 Overcast OVC070 8 3 71% 75.97 0.0
07 01:55 SW 2 16.09 Overcast OVC070 8 3 12.2 7.3 71% 75.97 0.0
07 01:35 Calm 16.09 Overcast OVC070 8 2 66% 75.97 0.0
07 01:15 S 2 16.09 Overcast BKN070 OVC095 8 2 66% 75.97 0.0
07 00:55 S 2 16.09 Overcast BKN070 OVC095 7 3 76% 76 0.0
07 00:35 S 2 16.09 Overcast BKN070 OVC095 8 2 66% 76 0.0
07 00:15 S 4 16.09 Overcast OVC095 8 3 71% 76 0.0
06 23:55 SW 2 16.09 Overcast OVC095 8 3 71% 76 0.0
06 23:35 SW 4 16.09 Overcast OVC095 8 2 66% 76 0.0
06 23:15 Vrbl 2 16.09 Overcast OVC095 9 1 58% 76.02 0.0
06 22:55 Vrbl 2 16.09 Overcast OVC095 9 1 58% 76.02 0.0
06 22:35 SW 2 16.09 Overcast OVC085 10 0 50% 76.02 0.0
06 22:15 W 4 16.09 Mostly Cloudy BKN085 10 -2 43% 76.02 0.0
06 21:55 Vrbl 2 16.09 Mostly Cloudy BKN085 10 -2 43% 76 0.0
06 21:35 W 6 16.09 Mostly Cloudy BKN085 10 -2 43% 76 0.0
06 21:15 Vrbl 6 16.09 A Few Clouds FEW085 11 -1 44% 75.97 0.0
06 20:55 Vrbl 4 16.09 Mostly Cloudy BKN085 11 -1 44% 75.97 0.0
06 20:35 Vrbl 4 16.09 Overcast OVC085 11 -1 44% 75.95 0.0
06 20:15 Vrbl 7 16.09 Mostly Cloudy BKN085 12 -2 38% 75.95 0.0
06 19:55 W 11 16.09 Overcast OVC085 12 -2 13.8 11.9 38% 75.95 0.0
06 19:35 W 9 16.09 Mostly Cloudy BKN070 BKN085 12 -2 38% 75.95 0.0
06 19:15 W 9 16.09 Partly Cloudy SCT070 13 -2 36% 75.92 0.0
06 18:55 W 15 16.09 Mostly Cloudy BKN070 13 -2 36% 75.92 0.0
06 18:35 NW 15 16.09 Overcast OVC070 13 -3 33% 75.92 0.0
06 18:15 W 9 16.09 Overcast OVC070 13 -1 38% 75.92 0.0
06 17:55 W 11 16.09 Overcast OVC070 13 -2 36% 75.95 0.0
06 17:35 Vrbl 11 16.09 Mostly Cloudy BKN070 13 -2 36% 75.92 0.0
06 17:15 W 15 16.09 Partly Cloudy SCT070 13 -1 38% 75.92 0.0
06 16:55 W 15 16.09 Partly Cloudy SCT070 13 -3 33% 75.92 0.0
06 16:35 W 11 16.09 Fair CLR 13 -2 36% 75.92 0.0
06 16:15 NW 17 G 26 16.09 Fair CLR 14 -2 33% 75.95 0.0
06 15:55 NW 11 16.09 A Few Clouds FEW110 13 -2 36% 75.95 0.0
06 15:35 NW 15 16.09 Mostly Cloudy BKN110 12 -3 35% 75.95 0.0
06 15:15 W 13 16.09 Mostly Cloudy BKN100 12 -3 35% 75.97 0.0
06 14:55 Vrbl 9 G 26 16.09 A Few Clouds FEW110 12 -4 33% 75.97 0.0
06 14:35 W 13 16.09 A Few Clouds FEW120 13 -2 36% 75.95 0.0
06 14:15 NW 13 16.09 Fair CLR 12 -2 38% 75.95 0.0
06 13:55 W 24 G 30 16.09 A Few Clouds FEW110 13 -3 13.7 7.4 33% 75.92 0.0
06 13:35 NW 15 G 28 16.09 A Few Clouds FEW110 13 -3 33% 75.95 0.0
06 13:15 NW 17 16.09 Fair CLR 13 -3 33% 75.95 0.0
06 12:55 NW 19 16.09 Fair CLR 13 -3 33% 75.97 0.0
06 12:35 NW 15 16.09 A Few Clouds FEW060 14 -1 36% 75.95 0.0
06 12:15 Vrbl 7 G 30 16.09 Fair CLR 13 0 41% 75.95 0.0
06 11:55 W 19 16.09 Fair CLR 13 -1 38% 75.95 0.0
06 11:35 NW 15 G 28 16.09 Fair CLR 13 -1 38% 75.95 0.0
06 11:15 NW 15 16.09 Fair CLR 12 -1 41% 75.92 0.0
06 10:55 Vrbl 7 16.09 Fair CLR 12 -1 41% 75.92 0.0
06 10:35 NW 15 16.09 Fair CLR 11 -1 44% 75.9 0.0
06 10:15 N 13 16.09 Fair CLR 11 -1 44% 75.9 0.0
06 09:55 NW 15 16.09 Fair CLR 11 -1 44% 75.9 0.0
06 09:35 NW 13 16.09 Fair CLR 11 0 47% 75.9 0.0
06 09:15 NW 13 16.09 Fair CLR 10 1 54% 8 75.84 0.0
06 08:55 NW 15 16.09 Fair CLR 9 1 58% 7 75.84 0.0
06 08:35 Vrbl 11 16.09 Fair CLR 9 2 62% 8 75.84 0.0
06 08:15 Vrbl 9 16.09 A Few Clouds FEW090 8 2 66% 7 75.82 0.0
06 07:55 N 4 16.09 Mostly Cloudy BKN090 8 2 7.8 7.1 66% 75.77 0.0
06 07:35 NW 6 16.09 Overcast OVC090 8 3 71% 75.77 0.0
06 07:15 Vrbl 6 16.09 Overcast BKN090 OVC120 8 3 71% 75.74 0.0
06 06:55 NW 6 16.09 Overcast SCT070 BKN090 OVC120 8 4 76% 75.72 0.0
06 06:35 W 6 16.09 Overcast OVC070 7 5 87% 75.72 0.0
06 06:15 Vrbl 6 16.09 Overcast OVC070 7 5 87% 75.69 0.0
06 05:55 W 7 16.09 Overcast OVC070 7 6 93% 6 75.69 0.0
06 05:35 W 6 16.09 Overcast OVC070 7 6 93% 75.67 0.0
06 05:15 Vrbl 2 16.09 Overcast OVC070 7 6 93% 75.67 0.0
06 04:55 W 7 16.09 Overcast OVC070 7 6 93% 6 75.69 0.0
06 04:35 Vrbl 4 16.09 Overcast OVC070 7 6 93% 75.67 0.0
06 04:15 SW 6 16.09 Overcast BKN070 OVC095 7 6 93% 75.69 0.0
06 03:55 Calm 16.09 Overcast SCT070 OVC095 7 6 93% 75.62 0.0
06 03:35 SW 6 16.09 Overcast BKN075 OVC095 7 6 93% 75.67 0.0
06 03:15 Vrbl 4 16.09 Overcast BKN075 OVC085 7 6 93% 75.67 0.0
06 02:55 Vrbl 4 16.09 Overcast BKN075 OVC085 7 6 93% 75.67 0.0
06 02:35 Vrbl 2 16.09 Light Drizzle BKN065 OVC090 7 6 93% 75.67 0.0
06 02:15 SW 6 16.09 Light Rain OVC060 7 6 93% 75.69 0.0
06 01:55 W 4 16.09 Light Drizzle OVC070 8 6 9.8 7.5 87% 75.69 0.0
06 01:35 SW 6 16.09 Overcast OVC060 8 6 87% 75.69 0.0
06 01:15 W 4 16.09 Light Drizzle OVC060 8 6 87% 75.69 0.0
06 00:55 W 6 16.09 Light Drizzle BKN060 OVC070 8 7 93% 75.69 0.0 0.03
06 00:35 Calm 16.09 Light Drizzle SCT060 BKN070 OVC080 8 7 93% 75.69 0.0
06 00:15 Calm 16.09 Light Drizzle BKN060 OVC070 8 7 93% 75.69 0.0
05 23:55 SW 4 16.09 Light Drizzle OVC070 8 7 93% 75.69 0.0
05 23:35 SE 4 16.09 Overcast OVC070 8 7 93% 75.67 0.0
05 23:15 S 2 16.09 Overcast OVC070 8 7 93% 75.69 0.0
05 22:55 SE 4 16.09 Light Rain BKN070 OVC080 8 7 93% 75.69 0.0 0.03
05 22:35 N 2 16.09 Light Rain OVC080 8 5 82% 75.69 0.0
05 22:15 NW 6 16.09 Light Rain OVC090 8 5 82% 75.69 0.0
05 21:55 NW 7 16.09 Light Rain BKN075 OVC090 9 8 94% 8 75.69 0.0 0.05
05 21:35 SW 7 16.09 Light Rain OVC080 9 8 94% 8 75.67 0.0
05 21:15 SW 6 16.09 Light Rain OVC090 9 8 94% 75.64 0.0
05 20:55 SW 6 16.09 Light Drizzle OVC090 9 8 94% 75.64 0.0 0.03
05 20:35 SW 6 16.09 Light Rain BKN080 OVC100 10 8 88% 75.62 0.0
05 20:15 Vrbl 6 16.09 Light Rain OVC080 10 8 88% 75.62 0.0
05 19:55 SW 7 16.09 Light Rain FEW070 OVC080 10 8 14.6 9.8 88% 9 75.62 0.0 0.08
05 19:35 SW 6 16.09 Light Rain SCT050 OVC070 10 9 94% 75.62 0.0
05 19:15 SW 7 12.87 Light Rain OVC050 10 9 94% 9 75.62 0.0
05 18:55 SW 7 16.09 Light Drizzle OVC044 10 9 94% 9 75.59 0.0
05 18:35 SW 6 16.09 Overcast OVC042 10 9 94% 75.59 0.0
05 18:15 SW 6 16.09 Overcast BKN040 BKN050 OVC070 10 9 94% 75.59 0.0
05 17:55 W 6 16.09 Light Rain SCT042 SCT050 OVC070 10 8 88% 75.59 0.0 0.1
05 17:35 SW 6 16.09 Light Rain BKN044 BKN060 OVC095 10 8 88% 75.59 0.0
05 17:15 SW 7 16.09 Light Rain OVC046 10 8 88% 9 75.62 0.0
05 16:55 W 7 16.09 Light Rain BKN046 BKN080 OVC090 11 8 82% 75.62 0.0 0.03
05 16:35 W 9 16.09 Light Rain BKN048 BKN080 OVC090 11 8 82% 75.59 0.0
05 16:15 Vrbl 7 16.09 Light Rain OVC050 11 7 77% 75.62 0.0
05 15:55 W 11 16.09 Light Drizzle OVC055 11 8 82% 75.64 0.0 0.03
05 15:35 Vrbl 7 16.09 Overcast OVC065 11 8 82% 75.64 0.0
05 15:15 W 7 16.09 Light Rain BKN065 OVC075 11 7 77% 75.67 0.0
05 14:55 N 13 16.09 Light Rain OVC080 11 8 82% 75.59 0.0
05 14:35 W 11 16.09 Light Rain BKN070 OVC080 13 6 63% 75.64 0.0
05 14:15 W 13 16.09 Light Rain OVC070 13 6 63% 75.62 0.0
05 13:55 W 13 16.09 Overcast OVC070 14 5 15.7 14.1 55% 75.59 0.0
05 13:35 W 13 16.09 Overcast OVC080 14 5 55% 75.54 0.0
05 13:15 W 13 16.09 Overcast OVC080 14 4 51% 75.57 0.0
05 12:55 W 15 16.09 Mostly Cloudy BKN090 15 4 48% 75.57 0.0
05 12:35 W 11 16.09 Overcast FEW044 FEW070 OVC090 15 5 51% 75.54 0.0
05 12:15 W 15 16.09 Light Rain FEW037 SCT065 OVC080 14 5 55% 75.59 0.0
05 11:55 W 19 16.09 Overcast OVC080 15 5 51% 75.59 0.0
05 11:35 W 26 G 31 16.09 Overcast OVC080 15 5 51% 75.57 0.0
05 11:15 W 11 16.09 Overcast OVC080 15 5 51% 75.54 0.0
05 10:55 W 13 G 33 16.09 Overcast FEW021 FEW028 OVC090 15 8 63% 75.54 0.0
05 10:35 W 17 G 26 16.09 Overcast BKN021 BKN028 OVC090 15 10 72% 75.49 0.0
05 10:15 W 15 G 31 16.09 Overcast BKN021 OVC028 15 11 77% 75.46 0.0
05 09:55 W 20 G 30 16.09 Partly Cloudy SCT019 16 11 72% 75.39 0.0
05 09:35 W 17 16.09 Mostly Cloudy BKN017 BKN022 15 11 77% 75.36 0.0
05 09:15 W 24 G 37 16.09 Overcast OVC017 15 12 82% 75.41 0.0
05 08:55 W 20 G 31 16.09 Mostly Cloudy SCT015 BKN022 15 12 82% 75.34 0.0
05 08:35 SW 19 16.09 Mostly Cloudy BKN022 BKN080 15 11 77% 75.34 0.0
05 08:15 SW 22 16.09 Partly Cloudy SCT020 SCT080 15 11 77% 75.36 0.0
05 07:55 SW 17 G 31 16.09 Fair CLR 14 11 16.8 13.7 82% 75.36 0.0
05 07:35 W 11 16.09 Fair CLR 14 11 82% 75.34 0.0
05 07:15 W 15 16.09 Fair CLR 14 11 82% 75.29 0.0
05 06:55 W 13 16.09 Fair CLR 14 11 82% 75.26 0.0
05 06:35 SW 9 16.09 Fair CLR 14 11 82% 75.23 0.0
05 06:15 SW 9 16.09 Fair CLR 14 11 82% 75.23 0.0
05 05:55 W 13 16.09 Fair CLR 14 11 82% 75.21 0.0
05 05:35 W 13 16.09 A Few Clouds FEW060 14 11 82% 75.21 0.0
05 05:15 W 11 16.09 Partly Cloudy SCT080 SCT090 14 12 88% 75.18 0.0
05 04:55 W 9 16.09 Overcast BKN080 OVC090 15 12 82% 75.16 0.0
05 04:35 W 17 16.09 Light Rain OVC090 15 12 82% 75.18 0.0
05 04:15 W 13 16.09 Light Rain OVC090 15 12 82% 75.18 0.0
05 03:55 W 17 16.09 Overcast OVC090 16 11 72% 75.16 0.0
05 03:35 SW 19 G 35 16.09 Overcast SCT080 OVC100 17 11 68% 75.11 0.0
05 03:15 SW 11 16.09 Mostly Cloudy BKN110 17 10 64% 75.08 0.0
05 02:55 SW 9 16.09 Partly Cloudy SCT070 SCT100 16 11 72% 75.08 0.0
05 02:35 Vrbl 7 16.09 Overcast OVC070 16 11 72% 75.13 0.0
05 02:15 SW 11 16.09 Mostly Cloudy BKN080 BKN110 16 11 72% 75.13 0.0
05 01:55 SW 13 16.09 Mostly Cloudy SCT065 BKN080 16 11 23.3 15.7 72% 75.16 0.0
05 01:35 W 13 16.09 Overcast BKN065 BKN080 OVC090 16 12 77% 75.18 0.0
05 01:15 W 13 16.09 Overcast SCT050 BKN080 OVC090 16 12 77% 75.21 0.0
05 00:55 Vrbl 11 16.09 Overcast SCT050 BKN065 OVC070 16 12 77% 75.21 0.0 0.05
05 00:35 Vrbl 7 16.09 Overcast FEW050 OVC075 17 12 73% 75.18 0.0
05 00:15 SW 17 G 39 16.09 Rain OVC070 20 11 56% 75.13 0.0
04 23:55 S 17 G 33 16.09 Overcast BKN080 OVC095 20 10 53% 75.11 0.0
04 23:35 S 19 G 33 16.09 Overcast BKN070 OVC090 20 10 53% 75.11 0.0
04 23:15 SW 17 G 28 16.09 Partly Cloudy FEW070 SCT090 20 10 53% 75.13 0.0
04 22:55 S 17 G 30 16.09 Partly Cloudy SCT070 SCT090 20 10 53% 75.13 0.0
04 22:35 SW 20 G 39 16.09 A Few Clouds FEW070 21 10 50% 75.16 0.0
04 22:15 SW 20 G 26 16.09 Fair CLR 21 10 50% 75.13 0.0
04 21:55 SW 17 G 30 16.09 Fair CLR 21 10 50% 75.11 0.0
04 21:35 SW 20 G 30 16.09 Fair CLR 21 10 50% 75.11 0.0
04 21:15 SW 28 G 39 16.09 Partly Cloudy FEW070 SCT120 22 9 44% 75.11 0.0
04 20:55 SW 17 G 39 16.09 Partly Cloudy FEW070 SCT100 SCT120 22 8 41% 75.11 0.0
04 20:35 SW 24 G 48 16.09 Mostly Cloudy SCT100 BKN120 23 8 38% 75.08 0.0
04 20:15 SW 31 G 52 16.09 Fair CLR 23 7 36% 75.06 0.0
04 19:55 SW 26 G 44 16.09 Fair CLR 23 9 25.1 22.9 41% 75.03 0.0
04 19:35 SW 31 G 52 16.09 Partly Cloudy SCT080 24 9 39% 25 75.03 0.0
04 19:15 SW 24 G 37 16.09 Mostly Cloudy BKN080 BKN110 24 9 39% 25 75.01 0.0
04 18:55 SW 20 G 35 16.09 Mostly Cloudy SCT070 SCT085 BKN110 24 9 39% 25 75.01 0.0
04 18:35 SW 22 G 41 16.09 Partly Cloudy FEW070 SCT110 24 9 39% 25 75.01 0.0
04 18:15 W 22 G 43 16.09 A Few Clouds FEW065 FEW075 FEW110 25 10 39% 26 75.01 0.0
04 17:55 SW 17 G 39 16.09 Partly Cloudy FEW070 SCT090 25 10 39% 26 75.03 0.0
04 17:35 W 30 G 46 16.09 Partly Cloudy FEW070 SCT090 SCT110 25 10 39% 26 75.03 0.0
Date Time (edt) Wind (kph) Vis. (km) Weather Sky Cond. Air Dwpt Max. Min. Relative Humidity Wind Chill (°C) Heat Index (°C) altimeter (cm) sea level (mb) 1 hr 3 hr 6 hr
6 hour
Temperature (ºC) Pressure Precipitation (cm)